createdAt,value
2018-09-15T00:01:25.506Z,91.00
2018-09-15T00:03:53.070Z,90.90
2018-09-15T00:06:20.642Z,91.00
2018-09-15T00:08:48.190Z,91.10
2018-09-15T00:11:15.770Z,91.10
2018-09-15T00:13:43.347Z,91.30
2018-09-15T00:16:11.021Z,91.30
2018-09-15T00:18:38.590Z,91.30
2018-09-15T00:21:06.198Z,91.30
2018-09-15T00:23:33.750Z,91.40
2018-09-15T00:26:01.341Z,91.40
2018-09-15T00:28:28.889Z,91.50
2018-09-15T00:30:56.463Z,91.40
2018-09-15T00:33:24.034Z,91.40
2018-09-15T00:35:51.625Z,91.60
2018-09-15T00:38:19.190Z,91.60
2018-09-15T00:40:46.785Z,91.60
2018-09-15T00:43:14.355Z,91.50
2018-09-15T00:45:41.930Z,91.70
2018-09-15T00:48:09.501Z,91.70
2018-09-15T00:50:37.580Z,91.90
2018-09-15T00:53:05.237Z,91.90
2018-09-15T00:55:32.802Z,92.10
2018-09-15T00:58:00.373Z,92.20
2018-09-15T01:00:28.008Z,92.20
2018-09-15T01:02:55.973Z,92.10
2018-09-15T01:05:23.533Z,92.10
2018-09-15T01:07:51.118Z,92.20
2018-09-15T01:10:18.685Z,92.40
2018-09-15T01:12:46.245Z,92.50
2018-09-15T01:15:13.777Z,92.50
2018-09-15T01:17:41.382Z,92.50
2018-09-15T01:20:09.036Z,92.70
2018-09-15T01:22:36.541Z,92.70
2018-09-15T01:25:04.954Z,92.80
2018-09-15T01:27:32.545Z,93.00
2018-09-15T01:30:00.130Z,93.00
2018-09-15T01:32:28.061Z,93.20
2018-09-15T01:34:55.912Z,93.50
2018-09-15T01:37:23.705Z,93.70
2018-09-15T01:39:51.313Z,93.80
2018-09-15T01:42:18.884Z,94.00
2018-09-15T01:44:46.474Z,93.80
2018-09-15T01:47:14.062Z,93.90
2018-09-15T01:49:42.225Z,94.00
2018-09-15T01:52:09.857Z,94.20
2018-09-15T01:54:37.413Z,94.30
2018-09-15T01:57:05.705Z,94.20
2018-09-15T01:59:33.279Z,94.40
2018-09-15T02:02:00.867Z,94.60
2018-09-15T02:04:28.469Z,94.70
2018-09-15T02:06:56.024Z,95.00
2018-09-15T02:09:23.596Z,95.10
2018-09-15T02:11:51.200Z,95.10
2018-09-15T02:14:18.753Z,95.20
2018-09-15T02:16:46.343Z,95.30
2018-09-15T02:19:13.905Z,95.40
2018-09-15T02:21:41.777Z,95.40
2018-09-15T02:24:09.344Z,95.60
2018-09-15T02:26:36.925Z,95.70
2018-09-15T02:29:04.541Z,95.90
2018-09-15T02:31:32.193Z,96.10
2018-09-15T02:33:59.749Z,96.30
2018-09-15T02:36:27.422Z,96.30
2018-09-15T02:38:55.000Z,96.60
2018-09-15T02:41:22.578Z,96.60
2018-09-15T02:43:50.102Z,96.80
2018-09-15T02:46:30.612Z,96.90
2018-09-15T02:48:58.121Z,96.90
2018-09-15T02:51:25.678Z,97.00
2018-09-15T02:53:53.358Z,97.00
2018-09-15T02:56:21.853Z,96.90
2018-09-15T02:58:49.393Z,96.80
2018-09-15T03:01:16.973Z,96.70
2018-09-15T03:03:44.509Z,96.80
2018-09-15T03:06:12.173Z,97.00
2018-09-15T03:08:39.717Z,97.10
2018-09-15T03:11:07.336Z,97.20
2018-09-15T03:13:34.909Z,97.40
2018-09-15T03:16:02.502Z,97.70
2018-09-15T03:18:30.945Z,97.50
2018-09-15T03:20:58.489Z,97.50
2018-09-15T03:23:26.132Z,97.60
2018-09-15T03:25:54.018Z,97.70
2018-09-15T03:28:21.582Z,97.70
2018-09-15T03:30:49.085Z,97.80
2018-09-15T03:33:16.628Z,98.00
2018-09-15T03:35:44.195Z,98.40
2018-09-15T03:38:11.757Z,98.20
2018-09-15T03:40:39.277Z,98.10
2018-09-15T03:43:06.904Z,98.30
2018-09-15T03:45:34.433Z,98.30
2018-09-15T03:48:01.996Z,98.30
2018-09-15T03:50:29.553Z,98.40
2018-09-15T03:52:57.107Z,98.60
2018-09-15T03:55:25.059Z,98.60
2018-09-15T03:57:53.062Z,98.60
2018-09-15T04:00:20.625Z,98.60
2018-09-15T04:02:48.157Z,98.80
2018-09-15T04:05:15.761Z,98.80
2018-09-15T04:07:43.320Z,99.00
2018-09-15T04:10:11.229Z,99.10
2018-09-15T04:12:38.842Z,99.30
2018-09-15T04:15:06.385Z,99.40
2018-09-15T04:17:34.092Z,99.40
2018-09-15T04:20:01.634Z,99.40
2018-09-15T04:22:29.207Z,99.50
2018-09-15T04:24:56.749Z,99.60
2018-09-15T04:27:24.377Z,99.50
2018-09-15T04:29:51.937Z,99.60
2018-09-15T04:32:19.525Z,99.60
2018-09-15T04:34:47.226Z,99.70
2018-09-15T04:37:14.761Z,99.70
2018-09-15T04:39:42.316Z,99.70
2018-09-15T04:42:09.876Z,99.90
2018-09-15T04:44:37.439Z,99.90
2018-09-15T04:47:05.017Z,99.90
2018-09-15T04:49:32.553Z,99.90
2018-09-15T04:52:00.106Z,99.90
2018-09-15T04:54:27.661Z,99.90
2018-09-15T04:56:55.214Z,99.90
2018-09-15T04:59:22.817Z,99.90
2018-09-15T05:01:50.370Z,99.90
2018-09-15T05:04:17.893Z,99.90
2018-09-15T05:06:45.476Z,99.90
2018-09-15T05:09:13.348Z,99.90
2018-09-15T05:11:41.754Z,99.90
2018-09-15T05:14:09.405Z,99.90
2018-09-15T05:16:36.978Z,99.90
2018-09-15T05:19:04.533Z,99.90
2018-09-15T05:21:32.055Z,99.90
2018-09-15T05:23:59.597Z,99.90
2018-09-15T05:26:27.165Z,99.90
2018-09-15T05:28:54.729Z,99.90
2018-09-15T05:31:22.705Z,99.90
2018-09-15T05:33:50.411Z,99.90
2018-09-15T05:36:17.973Z,99.90
2018-09-15T05:38:45.536Z,99.90
2018-09-15T05:41:13.091Z,99.90
2018-09-15T05:43:40.637Z,99.90
2018-09-15T05:46:08.202Z,99.90
2018-09-15T05:48:35.744Z,99.90
2018-09-15T05:51:03.281Z,99.90
2018-09-15T05:53:30.866Z,99.90
2018-09-15T05:55:58.454Z,99.90
2018-09-15T05:58:26.009Z,99.90
2018-09-15T06:00:54.253Z,99.90
2018-09-15T06:03:21.945Z,99.90
2018-09-15T06:05:49.731Z,99.90
2018-09-15T06:08:17.271Z,99.90
2018-09-15T06:10:44.793Z,99.90
2018-09-15T06:13:12.333Z,99.90
2018-09-15T06:15:39.925Z,99.90
2018-09-15T06:18:07.473Z,99.90
2018-09-15T06:20:35.001Z,99.90
2018-09-15T06:23:02.698Z,99.90
2018-09-15T06:25:30.333Z,99.90
2018-09-15T06:27:57.950Z,99.90
2018-09-15T06:30:25.526Z,99.90
2018-09-15T06:32:53.138Z,99.90
2018-09-15T06:35:20.818Z,99.90
2018-09-15T06:37:48.505Z,99.90
2018-09-15T06:40:16.136Z,99.90
2018-09-15T06:42:43.672Z,99.90
2018-09-15T06:45:11.327Z,99.90
2018-09-15T06:47:38.877Z,99.90
2018-09-15T06:50:06.520Z,99.90
2018-09-15T06:52:34.533Z,99.90
2018-09-15T06:55:02.093Z,99.90
2018-09-15T06:57:29.750Z,99.90
2018-09-15T06:59:57.333Z,99.90
2018-09-15T07:02:24.854Z,99.90
2018-09-15T07:04:52.576Z,99.90
2018-09-15T07:07:20.114Z,99.90
2018-09-15T07:09:47.684Z,99.90
2018-09-15T07:12:15.220Z,99.70
2018-09-15T07:14:43.273Z,99.60
2018-09-15T07:17:10.807Z,99.40
2018-09-15T07:19:38.346Z,99.20
2018-09-15T07:22:05.930Z,99.10
2018-09-15T07:24:33.515Z,99.00
2018-09-15T07:27:01.070Z,98.70
2018-09-15T07:29:28.670Z,98.70
2018-09-15T07:31:56.194Z,98.40
2018-09-15T07:34:23.736Z,98.40
2018-09-15T07:36:51.306Z,98.40
2018-09-15T07:39:19.029Z,98.40
2018-09-15T07:41:47.045Z,98.00
2018-09-15T07:44:14.601Z,97.80
2018-09-15T07:46:42.117Z,97.50
2018-09-15T07:49:09.794Z,97.70
2018-09-15T07:51:37.483Z,98.00
2018-09-15T07:54:05.285Z,98.20
2018-09-15T07:56:32.820Z,98.10
2018-09-15T07:59:00.409Z,98.00
2018-09-15T08:01:27.968Z,97.70
2018-09-15T08:03:55.948Z,97.60
2018-09-15T08:06:23.485Z,97.50
2018-09-15T08:08:51.073Z,97.00
2018-09-15T08:11:19.345Z,96.90
2018-09-15T08:13:47.122Z,96.70
2018-09-15T08:16:14.667Z,96.80
2018-09-15T08:18:42.240Z,96.40
2018-09-15T08:21:09.810Z,96.50
2018-09-15T08:23:37.402Z,96.40
2018-09-15T08:26:04.981Z,96.10
2018-09-15T08:28:32.504Z,95.90
2018-09-15T08:31:00.075Z,95.70
2018-09-15T08:33:27.629Z,95.10
2018-09-15T08:35:55.172Z,94.70
2018-09-15T08:38:22.760Z,94.90
2018-09-15T08:40:50.329Z,94.50
2018-09-15T08:43:17.865Z,95.00
2018-09-15T08:45:48.397Z,95.10
2018-09-15T08:48:16.113Z,94.60
2018-09-15T08:50:43.605Z,94.00
2018-09-15T08:53:11.146Z,93.70
2018-09-15T08:55:38.689Z,93.50
2018-09-15T08:58:06.233Z,93.00
2018-09-15T09:00:33.913Z,92.90
2018-09-15T09:03:01.421Z,93.60
2018-09-15T09:05:28.958Z,93.00
2018-09-15T09:07:57.097Z,92.30
2018-09-15T09:10:24.735Z,92.40
2018-09-15T09:12:53.293Z,92.30
2018-09-15T09:15:20.992Z,91.50
2018-09-15T09:17:48.569Z,91.70
2018-09-15T09:20:16.157Z,91.70
2018-09-15T09:22:43.694Z,91.50
2018-09-15T09:25:11.234Z,91.40
2018-09-15T09:27:38.765Z,91.20
2018-09-15T09:30:06.352Z,90.50
2018-09-15T09:32:34.153Z,91.20
2018-09-15T09:35:01.722Z,91.50
2018-09-15T09:37:29.277Z,91.00
2018-09-15T09:39:56.905Z,90.80
2018-09-15T09:42:24.757Z,90.00
2018-09-15T09:44:52.296Z,89.50
2018-09-15T09:47:19.893Z,89.00
2018-09-15T09:49:47.476Z,89.00
2018-09-15T09:52:14.989Z,87.60
2018-09-15T09:54:42.532Z,86.20
2018-09-15T09:57:10.848Z,86.10
2018-09-15T09:59:38.401Z,86.50
2018-09-15T10:02:12.333Z,86.30
2018-09-15T10:04:39.865Z,87.50
2018-09-15T10:07:07.447Z,87.70
2018-09-15T10:09:34.989Z,87.00
2018-09-15T10:12:02.541Z,87.20
2018-09-15T10:14:30.089Z,87.70
2018-09-15T10:16:57.645Z,86.60
2018-09-15T10:19:25.175Z,87.20
2018-09-15T10:21:52.750Z,86.50
2018-09-15T10:24:20.288Z,86.70
2018-09-15T10:26:47.993Z,86.50
2018-09-15T10:29:15.551Z,84.80
2018-09-15T10:31:43.121Z,85.00
2018-09-15T10:34:10.670Z,85.00
2018-09-15T10:36:38.408Z,85.70
2018-09-15T10:39:09.073Z,85.50
2018-09-15T10:41:37.297Z,85.40
2018-09-15T10:44:05.200Z,84.40
2018-09-15T10:46:33.012Z,85.40
2018-09-15T10:49:00.809Z,84.70
2018-09-15T10:51:28.431Z,84.60
2018-09-15T10:53:55.973Z,81.90
2018-09-15T10:56:24.730Z,81.70
2018-09-15T10:58:57.266Z,83.20
2018-09-15T11:01:24.841Z,83.90
2018-09-15T11:03:52.402Z,84.40
2018-09-15T11:06:19.970Z,84.40
2018-09-15T11:08:47.497Z,86.30
2018-09-15T11:11:15.087Z,87.90
2018-09-15T11:13:42.669Z,89.00
2018-09-15T11:16:10.415Z,87.70
2018-09-15T11:18:38.205Z,86.20
2018-09-15T11:21:05.821Z,86.70
2018-09-15T11:23:33.337Z,85.90
2018-09-15T11:26:00.968Z,81.50
2018-09-15T11:28:28.609Z,76.60
2018-09-15T11:30:56.228Z,76.90
2018-09-15T11:33:23.745Z,75.10
2018-09-15T11:35:51.352Z,73.70
2018-09-15T11:38:18.946Z,74.70
2018-09-15T11:40:47.151Z,75.90
2018-09-15T11:43:15.609Z,76.40
2018-09-15T11:45:43.750Z,76.40
2018-09-15T11:48:12.033Z,75.60
2018-09-15T11:50:39.878Z,74.40
2018-09-15T11:53:07.501Z,75.10
2018-09-15T11:55:35.083Z,74.00
2018-09-15T11:58:02.641Z,74.40
2018-09-15T12:00:32.417Z,72.50
2018-09-15T12:03:00.018Z,71.80
2018-09-15T12:05:27.597Z,74.20
2018-09-15T12:07:55.197Z,75.80
2018-09-15T12:10:22.775Z,75.50
2018-09-15T12:12:50.348Z,75.00
2018-09-15T12:15:18.148Z,74.00
2018-09-15T12:17:46.154Z,72.80
2018-09-15T12:20:13.753Z,73.70
2018-09-15T12:22:41.373Z,73.40
2018-09-15T12:25:09.153Z,73.20
2018-09-15T12:27:37.198Z,72.50
2018-09-15T12:30:05.237Z,72.80
2018-09-15T12:32:32.825Z,72.60
2018-09-15T12:35:00.982Z,71.60
2018-09-15T12:37:28.929Z,71.50
2018-09-15T12:39:56.872Z,71.00
2018-09-15T12:42:25.805Z,69.70
2018-09-15T12:44:53.401Z,68.10
2018-09-15T12:47:21.404Z,66.20
2018-09-15T12:49:48.969Z,65.40
2018-09-15T12:52:16.603Z,65.30
2018-09-15T12:54:44.173Z,61.70
2018-09-15T12:57:11.777Z,60.70
2018-09-15T12:59:39.929Z,58.40
2018-09-15T13:02:08.164Z,60.10
2018-09-15T13:04:35.690Z,63.00
2018-09-15T13:07:03.304Z,65.50
2018-09-15T13:09:31.005Z,66.20
2018-09-15T13:11:59.398Z,66.50
2018-09-15T13:14:26.949Z,67.10
2018-09-15T13:16:54.770Z,67.60
2018-09-15T13:19:22.381Z,67.40
2018-09-15T13:21:52.498Z,67.20
2018-09-15T13:24:20.105Z,67.30
2018-09-15T13:26:47.653Z,66.30
2018-09-15T13:29:15.190Z,63.80
2018-09-15T13:31:42.745Z,62.50
2018-09-15T13:34:10.743Z,62.60
2018-09-15T13:36:38.298Z,62.10
2018-09-15T13:39:07.966Z,62.90
2018-09-15T13:41:35.540Z,63.00
2018-09-15T13:44:04.263Z,63.10
2018-09-15T13:46:31.885Z,63.40
2018-09-15T13:49:00.144Z,62.80
2018-09-15T13:51:27.692Z,61.50
2018-09-15T13:53:55.229Z,58.90
2018-09-15T13:56:22.765Z,57.40
2018-09-15T13:58:50.496Z,56.60
2018-09-15T14:01:18.039Z,55.30
2018-09-15T14:03:45.578Z,56.70
2018-09-15T14:06:13.137Z,58.60
2018-09-15T14:08:40.762Z,59.30
2018-09-15T14:11:08.331Z,60.20
2018-09-15T14:13:36.037Z,61.30
2018-09-15T14:16:03.579Z,61.80
2018-09-15T14:18:31.202Z,62.30
2018-09-15T14:20:58.761Z,62.10
2018-09-15T14:23:26.317Z,61.90
2018-09-15T14:25:53.861Z,62.30
2018-09-15T14:28:21.453Z,63.60
2018-09-15T14:30:48.957Z,62.80
2018-09-15T14:33:17.497Z,63.10
2018-09-15T14:35:45.029Z,64.40
2018-09-15T14:38:13.001Z,63.90
2018-09-15T14:40:40.565Z,63.50
2018-09-15T14:43:08.281Z,63.60
2018-09-15T14:45:35.960Z,63.60
2018-09-15T14:48:03.665Z,64.20
2018-09-15T14:50:31.450Z,63.80
2018-09-15T14:52:59.045Z,64.70
2018-09-15T14:55:26.615Z,65.10
2018-09-15T14:57:54.161Z,64.90
2018-09-15T15:00:21.701Z,64.60
2018-09-15T15:02:53.642Z,64.90
2018-09-15T15:05:21.362Z,64.90
2018-09-15T15:07:49.635Z,64.40
2018-09-15T15:10:17.109Z,64.50
2018-09-15T15:12:44.662Z,64.40
2018-09-15T15:15:12.241Z,64.30
2018-09-15T15:17:39.765Z,64.40
2018-09-15T15:20:07.326Z,64.60
2018-09-15T15:22:34.833Z,65.00
2018-09-15T15:25:03.721Z,65.40
2018-09-15T15:27:31.237Z,66.00
2018-09-15T15:29:58.792Z,66.00
2018-09-15T15:32:26.313Z,65.20
2018-09-15T15:34:53.863Z,65.70
2018-09-15T15:37:21.393Z,66.00
2018-09-15T15:39:48.929Z,65.70
2018-09-15T15:42:16.535Z,64.90
2018-09-15T15:44:44.062Z,64.70
2018-09-15T15:47:11.626Z,65.10
2018-09-15T15:49:39.251Z,65.30
2018-09-15T15:52:06.833Z,65.50
2018-09-15T15:54:34.370Z,65.80
2018-09-15T15:57:01.979Z,67.90
2018-09-15T15:59:29.468Z,65.70
2018-09-15T16:01:56.973Z,63.60
2018-09-15T16:04:24.598Z,63.50
2018-09-15T16:06:52.122Z,63.20
2018-09-15T16:09:30.648Z,62.90
2018-09-15T16:12:05.647Z,63.50
2018-09-15T16:14:47.388Z,64.10
2018-09-15T16:17:27.602Z,63.70
2018-09-15T16:20:05.369Z,64.20
2018-09-15T16:22:47.151Z,65.60
2018-09-15T16:26:27.799Z,65.30
2018-09-15T16:29:07.538Z,66.10
2018-09-15T16:31:45.665Z,66.30
2018-09-15T16:34:23.102Z,66.10
2018-09-15T16:37:01.415Z,65.70
2018-09-15T16:39:37.284Z,66.00
2018-09-15T16:42:16.438Z,65.30
2018-09-15T16:44:56.818Z,64.10
2018-09-15T16:47:32.896Z,64.10
2018-09-15T16:50:11.482Z,64.20
2018-09-15T16:52:49.023Z,63.60
2018-09-15T16:55:28.626Z,64.90
2018-09-15T16:58:07.547Z,65.80
2018-09-15T17:00:43.225Z,65.40
2018-09-15T17:03:25.559Z,66.00
2018-09-15T17:06:02.384Z,65.10
2018-09-15T17:08:40.465Z,66.80
2018-09-15T17:11:16.242Z,67.30
2018-09-15T17:13:53.814Z,66.30
2018-09-15T17:16:33.141Z,67.70
2018-09-15T17:19:12.743Z,69.60
2018-09-15T17:21:52.254Z,70.70
2018-09-15T17:24:30.379Z,72.10
2018-09-15T17:27:10.496Z,73.00
2018-09-15T17:29:47.232Z,73.30
2018-09-15T17:32:14.821Z,74.60
2018-09-15T17:34:42.381Z,76.30
2018-09-15T17:37:09.970Z,77.50
2018-09-15T17:39:38.840Z,78.60
2018-09-15T17:42:06.656Z,78.80
2018-09-15T17:44:34.282Z,79.10
2018-09-15T17:47:01.802Z,80.30
2018-09-15T17:49:29.353Z,81.30
2018-09-15T17:51:56.865Z,81.90
2018-09-15T17:54:24.409Z,82.90
2018-09-15T17:56:52.472Z,83.80
2018-09-15T17:59:20.170Z,83.90
2018-09-15T18:01:47.752Z,85.20
2018-09-15T18:04:15.344Z,84.60
2018-09-15T18:06:43.029Z,85.70
2018-09-15T18:09:10.591Z,85.60
2018-09-15T18:11:38.107Z,86.40
2018-09-15T18:14:05.657Z,86.40
2018-09-15T18:16:33.253Z,87.70
2018-09-15T18:19:00.809Z,88.10
2018-09-15T18:21:28.365Z,88.50
2018-09-15T18:23:55.959Z,88.30
2018-09-15T18:26:23.561Z,88.20
2018-09-15T18:28:51.123Z,88.30
2018-09-15T18:31:18.676Z,88.10
2018-09-15T18:33:46.288Z,88.10
2018-09-15T18:36:14.058Z,88.20
2018-09-15T18:38:41.777Z,89.00
2018-09-15T18:41:09.397Z,89.10
2018-09-15T18:43:36.937Z,89.50
2018-09-15T18:46:04.525Z,89.60
2018-09-15T18:48:32.068Z,89.70
2018-09-15T18:50:59.679Z,89.60
2018-09-15T18:53:27.640Z,90.10
2018-09-15T18:55:55.879Z,90.20
2018-09-15T18:58:23.430Z,90.20
2018-09-15T19:00:51.025Z,90.30
2018-09-15T19:03:18.571Z,90.60
2018-09-15T19:05:46.597Z,90.90
2018-09-15T19:08:14.245Z,91.00
2018-09-15T19:10:42.289Z,91.20
2018-09-15T19:13:10.297Z,91.40
2018-09-15T19:15:37.847Z,91.30
2018-09-15T19:18:05.520Z,91.40
2018-09-15T19:20:33.089Z,91.20
2018-09-15T19:23:01.662Z,91.20
2018-09-15T19:25:29.361Z,90.80
2018-09-15T19:27:56.887Z,90.90
2018-09-15T19:30:26.233Z,91.20
2018-09-15T19:32:53.746Z,91.40
2018-09-15T19:35:21.289Z,91.50
2018-09-15T19:37:48.873Z,91.80
2018-09-15T19:40:16.401Z,91.80
2018-09-15T19:42:43.927Z,92.10
2018-09-15T19:45:11.473Z,92.00
2018-09-15T19:47:39.025Z,92.00
2018-09-15T19:50:06.589Z,92.00
2018-09-15T19:55:07.327Z,91.70
2018-09-15T19:57:35.433Z,91.40
2018-09-15T20:00:03.146Z,91.20
2018-09-15T20:02:32.793Z,91.30
2018-09-15T20:05:00.373Z,91.50
2018-09-15T20:07:27.925Z,91.80
2018-09-15T20:09:55.481Z,91.90
2018-09-15T20:12:23.056Z,91.90
2018-09-15T20:14:51.022Z,92.10
2018-09-15T20:17:17.529Z,92.20
2018-09-15T20:19:44.053Z,92.20
2018-09-15T20:22:11.596Z,92.20
2018-09-15T20:24:39.166Z,92.50
2018-09-15T20:27:06.701Z,92.00
2018-09-15T20:29:34.261Z,92.10
2018-09-15T20:32:01.834Z,92.30
2018-09-15T20:34:29.436Z,92.20
2018-09-15T20:36:56.985Z,92.50
2018-09-15T20:39:24.509Z,92.60
2018-09-15T20:41:52.078Z,92.50
2018-09-15T20:44:19.625Z,92.40
2018-09-15T20:46:50.841Z,92.40
2018-09-15T20:49:18.417Z,92.40
2018-09-15T20:51:46.041Z,92.50
2018-09-15T20:54:16.161Z,92.60
2018-09-15T20:56:44.204Z,92.70
2018-09-15T20:59:11.733Z,92.80
2018-09-15T21:01:39.641Z,92.90
2018-09-15T21:04:07.262Z,92.80
2018-09-15T21:06:35.246Z,92.80
2018-09-15T21:09:03.514Z,92.90
2018-09-15T21:11:31.094Z,93.10
2018-09-15T21:13:58.617Z,93.30
2018-09-15T21:16:26.269Z,93.40
2018-09-15T21:18:54.386Z,93.60
2018-09-15T21:21:22.050Z,93.70
2018-09-15T21:23:49.601Z,93.80
2018-09-15T21:26:17.233Z,93.70
2018-09-15T21:28:44.773Z,93.70
2018-09-15T21:31:12.417Z,93.70
2018-09-15T21:33:39.953Z,93.70
2018-09-15T21:36:07.562Z,93.70
2018-09-15T21:38:35.142Z,93.80
2018-09-15T21:41:02.659Z,94.00
2018-09-15T21:43:30.506Z,94.10
2018-09-15T21:45:58.055Z,94.20
2018-09-15T21:48:25.590Z,94.10
2018-09-15T21:50:53.138Z,94.20
2018-09-15T21:53:21.221Z,94.40
2018-09-15T21:55:48.761Z,94.20
2018-09-15T21:58:16.902Z,94.40
2018-09-15T22:00:44.471Z,94.40
2018-09-15T22:03:12.021Z,94.30
2018-09-15T22:05:39.569Z,94.50
2018-09-15T22:08:07.116Z,94.60
2018-09-15T22:10:34.658Z,94.60
2018-09-15T22:13:02.205Z,94.70
2018-09-15T22:15:30.534Z,94.90
2018-09-15T22:17:58.544Z,95.00
2018-09-15T22:20:26.852Z,95.00
2018-09-15T22:22:54.381Z,95.10
2018-09-15T22:25:22.001Z,95.20
2018-09-15T22:27:49.697Z,95.20
2018-09-15T22:30:17.318Z,95.20
2018-09-15T22:32:44.941Z,95.10
2018-09-15T22:35:12.509Z,95.50
2018-09-15T22:37:40.043Z,95.60
2018-09-15T22:40:08.061Z,95.70
2018-09-15T22:42:35.789Z,95.70
2018-09-15T22:45:04.033Z,95.80
2018-09-15T22:47:31.622Z,95.90
2018-09-15T22:49:59.177Z,95.90
2018-09-15T22:52:26.695Z,96.00
2018-09-15T22:54:54.246Z,95.80
2018-09-15T22:57:21.800Z,95.80
2018-09-15T22:59:49.389Z,96.00
2018-09-15T23:02:16.929Z,96.00
2018-09-15T23:04:44.473Z,95.90
2018-09-15T23:07:12.000Z,96.00
2018-09-15T23:09:39.829Z,96.00
2018-09-15T23:12:07.405Z,96.30
2018-09-15T23:14:35.218Z,96.30
2018-09-15T23:17:02.791Z,96.40
2018-09-15T23:19:30.350Z,96.50
2018-09-15T23:21:57.959Z,96.50
2018-09-15T23:24:25.534Z,96.50
2018-09-15T23:26:55.496Z,96.40
2018-09-15T23:29:23.134Z,96.40
2018-09-15T23:31:50.678Z,96.50
2018-09-15T23:34:18.234Z,96.60
2018-09-15T23:36:45.817Z,96.60
2018-09-15T23:39:13.457Z,96.50
2018-09-15T23:41:41.029Z,96.60
2018-09-15T23:44:09.424Z,96.70
2018-09-15T23:46:36.953Z,96.70
2018-09-15T23:49:04.621Z,96.70
2018-09-15T23:51:32.267Z,96.80
2018-09-15T23:56:27.061Z,96.90
2018-09-15T23:58:54.693Z,97.00
